createdAt,value
2022-08-17T00:00:33.306Z,773.27
2022-08-17T00:02:56.816Z,781.40
2022-08-17T00:05:24.307Z,782.80
2022-08-17T00:07:50.990Z,776.70
2022-08-17T00:10:17.525Z,774.50
2022-08-17T00:12:44.774Z,780.30
2022-08-17T00:15:11.387Z,782.03
2022-08-17T00:17:37.836Z,781.40
2022-08-17T00:20:04.289Z,774.40
2022-08-17T00:22:34.522Z,782.23
2022-08-17T00:25:02.507Z,783.63
2022-08-17T00:27:28.970Z,781.83
2022-08-17T00:29:55.400Z,781.90
2022-08-17T00:33:10.958Z,778.63
2022-08-17T00:35:08.520Z,780.53
2022-08-17T00:37:34.993Z,777.93
2022-08-17T00:40:01.484Z,783.40
2022-08-17T00:42:31.113Z,780.53
2022-08-17T00:44:57.828Z,785.00
2022-08-17T00:47:24.260Z,779.60
2022-08-17T00:49:53.055Z,780.50
2022-08-17T00:52:19.484Z,781.83
2022-08-17T00:54:45.915Z,780.60
2022-08-17T00:57:12.394Z,782.37
2022-08-17T00:59:38.826Z,789.67
2022-08-17T01:02:05.300Z,780.37
2022-08-17T01:04:31.754Z,784.93
2022-08-17T01:06:58.189Z,779.80
2022-08-17T01:09:24.667Z,779.60
2022-08-17T01:11:51.140Z,786.17
2022-08-17T01:14:17.608Z,778.10
2022-08-17T01:16:44.072Z,784.97
2022-08-17T01:19:10.517Z,782.70
2022-08-17T01:21:37.018Z,783.13
2022-08-17T01:24:03.474Z,781.53
2022-08-17T01:26:30.185Z,777.17
2022-08-17T01:28:56.668Z,779.87
2022-08-17T01:31:23.117Z,782.03
2022-08-17T01:33:49.588Z,784.73
2022-08-17T01:36:16.050Z,780.13
2022-08-17T01:38:42.537Z,782.57
2022-08-17T01:41:09.062Z,781.53
2022-08-17T01:43:35.528Z,781.57
2022-08-17T01:46:03.464Z,773.20
2022-08-17T01:48:30.413Z,780.40
2022-08-17T01:50:56.881Z,782.93
2022-08-17T01:53:23.333Z,781.53
2022-08-17T01:55:49.856Z,783.20
2022-08-17T01:58:16.351Z,780.03
2022-08-17T02:00:59.990Z,781.33
2022-08-17T02:03:27.582Z,770.97
2022-08-17T02:05:54.030Z,779.00
2022-08-17T02:08:20.510Z,787.80
2022-08-17T02:11:05.823Z,778.00
2022-08-17T02:13:37.959Z,786.53
2022-08-17T02:16:04.386Z,770.57
2022-08-17T02:18:30.861Z,781.53
2022-08-17T02:20:57.295Z,778.93
2022-08-17T02:23:23.817Z,782.83
2022-08-17T02:25:50.272Z,774.73
2022-08-17T02:28:16.733Z,781.57
2022-08-17T02:31:01.255Z,776.17
2022-08-17T02:33:41.485Z,769.03
2022-08-17T02:36:08.838Z,778.20
2022-08-17T02:38:35.298Z,776.70
2022-08-17T02:41:01.747Z,778.83
2022-08-17T02:43:28.218Z,777.47
2022-08-17T02:45:54.663Z,777.93
2022-08-17T02:48:30.579Z,779.63
2022-08-17T02:50:57.759Z,777.10
2022-08-17T02:53:24.194Z,774.43
2022-08-17T02:55:52.216Z,779.70
2022-08-17T02:58:34.423Z,779.37
2022-08-17T03:01:02.036Z,777.03
2022-08-17T03:03:28.483Z,778.40
2022-08-17T03:05:54.938Z,778.27
2022-08-17T03:08:21.699Z,776.33
2022-08-17T03:10:48.149Z,779.53
2022-08-17T03:13:14.594Z,781.10
2022-08-17T03:15:41.521Z,768.17
2022-08-17T03:18:18.849Z,776.17
2022-08-17T03:20:51.593Z,779.90
2022-08-17T03:23:18.051Z,772.63
2022-08-17T03:25:44.482Z,775.60
2022-08-17T03:28:12.212Z,773.03
2022-08-17T03:30:38.674Z,773.47
2022-08-17T03:33:05.139Z,775.27
2022-08-17T03:35:31.604Z,778.83
2022-08-17T03:38:00.471Z,778.17
2022-08-17T03:40:34.519Z,780.83
2022-08-17T03:43:13.870Z,776.93
2022-08-17T03:45:42.096Z,773.70
2022-08-17T03:48:09.700Z,779.23
2022-08-17T03:50:36.130Z,778.93
2022-08-17T03:53:02.570Z,779.73
2022-08-17T03:55:35.819Z,773.90
2022-08-17T03:58:02.729Z,774.50
2022-08-17T04:00:29.210Z,778.57
2022-08-17T04:02:55.676Z,778.23
2022-08-17T04:05:22.147Z,781.10
2022-08-17T04:07:48.600Z,781.73
2022-08-17T04:10:15.039Z,777.13
2022-08-17T04:12:41.701Z,777.30
2022-08-17T04:15:08.134Z,777.47
2022-08-17T04:17:34.596Z,773.13
2022-08-17T04:20:01.055Z,772.93
2022-08-17T04:22:32.656Z,775.03
2022-08-17T04:25:00.520Z,777.23
2022-08-17T04:27:27.162Z,778.17
2022-08-17T04:29:54.905Z,775.53
2022-08-17T04:33:00.844Z,778.10
2022-08-17T04:35:08.889Z,773.50
2022-08-17T04:37:35.352Z,775.43
2022-08-17T04:40:04.089Z,772.40
2022-08-17T04:42:30.862Z,775.00
2022-08-17T04:44:57.306Z,772.43
2022-08-17T04:47:23.784Z,777.23
2022-08-17T04:49:50.247Z,778.93
2022-08-17T04:52:29.744Z,773.20
2022-08-17T04:55:03.152Z,776.17
2022-08-17T04:57:29.618Z,773.83
2022-08-17T05:00:05.970Z,773.00
2022-08-17T05:02:32.549Z,777.07
2022-08-17T05:04:59.025Z,776.20
2022-08-17T05:07:31.307Z,775.87
2022-08-17T05:09:58.471Z,779.13
2022-08-17T05:12:24.928Z,776.60
2022-08-17T05:14:51.364Z,774.50
2022-08-17T05:17:17.827Z,772.20
2022-08-17T05:19:47.603Z,775.93
2022-08-17T05:22:16.590Z,775.33
2022-08-17T05:24:50.428Z,776.23
2022-08-17T05:27:20.468Z,778.27
2022-08-17T05:29:46.891Z,771.63
2022-08-17T05:32:39.509Z,774.13
2022-08-17T05:35:00.186Z,774.57
2022-08-17T05:37:26.751Z,774.93
2022-08-17T05:39:53.261Z,773.53
2022-08-17T05:42:20.025Z,776.13
2022-08-17T05:44:46.485Z,776.13
2022-08-17T05:47:12.953Z,778.40
2022-08-17T05:49:39.489Z,773.80
2022-08-17T05:52:05.932Z,774.13
2022-08-17T05:54:32.429Z,773.87
2022-08-17T05:56:58.886Z,771.40
2022-08-17T05:59:25.525Z,779.33
2022-08-17T06:01:51.996Z,778.10
2022-08-17T06:04:18.566Z,780.33
2022-08-17T06:06:44.999Z,779.53
2022-08-17T06:09:11.490Z,778.83
2022-08-17T06:11:38.027Z,774.10
2022-08-17T06:14:04.545Z,770.00
2022-08-17T06:16:34.479Z,778.30
2022-08-17T06:19:01.260Z,776.17
2022-08-17T06:21:32.069Z,774.23
2022-08-17T06:23:58.763Z,778.90
2022-08-17T06:26:25.897Z,777.20
2022-08-17T06:29:00.974Z,770.53
2022-08-17T06:31:27.424Z,775.30
2022-08-17T06:33:53.898Z,776.90
2022-08-17T06:36:20.354Z,771.93
2022-08-17T06:38:48.160Z,779.27
2022-08-17T06:41:14.601Z,770.73
2022-08-17T06:43:44.000Z,775.73
2022-08-17T06:46:12.641Z,776.97
2022-08-17T06:48:39.120Z,772.70
2022-08-17T06:51:05.600Z,777.90
2022-08-17T06:53:32.545Z,776.27
2022-08-17T06:55:58.987Z,776.87
2022-08-17T06:58:29.537Z,776.53
2022-08-17T07:00:58.740Z,773.40
2022-08-17T07:03:25.448Z,776.07
2022-08-17T07:05:51.894Z,773.73
2022-08-17T07:08:18.351Z,775.73
2022-08-17T07:10:44.827Z,767.03
2022-08-17T07:13:11.285Z,774.23
2022-08-17T07:15:37.788Z,770.60
2022-08-17T07:18:04.270Z,770.63
2022-08-17T07:20:30.747Z,772.23
2022-08-17T07:22:59.718Z,772.70
2022-08-17T07:25:26.990Z,770.07
2022-08-17T07:27:53.438Z,773.10
2022-08-17T07:30:19.877Z,772.17
2022-08-17T07:32:46.430Z,772.10
2022-08-17T07:35:12.868Z,771.13
2022-08-17T07:37:41.985Z,769.43
2022-08-17T07:40:16.367Z,772.57
2022-08-17T07:42:45.139Z,774.13
2022-08-17T07:45:13.278Z,770.17
2022-08-17T07:47:39.757Z,773.07
2022-08-17T07:50:06.204Z,773.30
2022-08-17T07:52:51.071Z,771.90
2022-08-17T07:55:18.500Z,769.00
2022-08-17T07:57:44.959Z,770.37
2022-08-17T08:00:16.263Z,770.00
2022-08-17T08:02:43.047Z,770.80
2022-08-17T08:05:10.102Z,765.57
2022-08-17T08:07:36.641Z,770.13
2022-08-17T08:10:03.084Z,769.13
2022-08-17T08:12:32.715Z,770.33
2022-08-17T08:15:00.031Z,770.23
2022-08-17T08:17:26.486Z,771.83
2022-08-17T08:19:53.169Z,775.53
2022-08-17T08:22:19.608Z,767.63
2022-08-17T08:24:46.116Z,771.77
2022-08-17T08:27:12.639Z,769.63
2022-08-17T08:29:39.149Z,769.33
2022-08-17T08:32:05.819Z,770.93
2022-08-17T08:34:44.492Z,767.00
2022-08-17T08:37:25.152Z,767.67
2022-08-17T08:39:59.295Z,765.73
2022-08-17T08:42:26.025Z,770.13
2022-08-17T08:45:00.663Z,764.70
2022-08-17T08:47:31.380Z,766.70
2022-08-17T08:50:04.483Z,762.87
2022-08-17T08:52:31.773Z,766.30
2022-08-17T08:54:58.247Z,760.17
2022-08-17T08:57:29.421Z,768.13
2022-08-17T08:59:59.467Z,767.20
2022-08-17T09:02:25.920Z,762.23
2022-08-17T09:05:13.448Z,768.77
2022-08-17T09:07:38.890Z,768.00
2022-08-17T09:10:05.419Z,758.93
2022-08-17T09:12:31.879Z,765.33
2022-08-17T09:14:58.337Z,770.23
2022-08-17T09:17:24.783Z,767.00
2022-08-17T09:19:51.286Z,759.47
2022-08-17T09:22:17.782Z,770.63
2022-08-17T09:24:44.236Z,763.90
2022-08-17T09:27:10.676Z,766.63
2022-08-17T09:29:37.164Z,768.23
2022-08-17T09:32:03.658Z,771.23
2022-08-17T09:34:33.097Z,771.03
2022-08-17T09:36:59.862Z,758.30
2022-08-17T09:39:26.368Z,765.47
2022-08-17T09:41:52.861Z,770.57
2022-08-17T09:44:23.280Z,763.23
2022-08-17T09:46:50.285Z,768.30
2022-08-17T09:49:16.778Z,762.80
2022-08-17T09:51:43.281Z,765.90
2022-08-17T09:54:37.600Z,769.97
2022-08-17T09:57:11.836Z,763.73
2022-08-17T09:59:42.668Z,763.23
2022-08-17T10:02:09.131Z,764.97
2022-08-17T10:04:39.968Z,765.80
2022-08-17T10:07:06.412Z,764.57
2022-08-17T10:09:32.937Z,764.10
2022-08-17T10:11:59.441Z,766.73
2022-08-17T10:14:36.415Z,768.30
2022-08-17T10:17:09.788Z,757.60
2022-08-17T10:19:36.250Z,765.80
2022-08-17T10:22:32.411Z,760.73
2022-08-17T10:25:22.987Z,759.97
2022-08-17T10:27:35.580Z,764.43
2022-08-17T10:30:02.156Z,764.73
2022-08-17T10:32:28.696Z,766.63
2022-08-17T10:34:55.218Z,768.53
2022-08-17T10:37:21.691Z,764.70
2022-08-17T10:39:52.184Z,769.63
2022-08-17T10:42:30.329Z,768.33
2022-08-17T10:44:59.338Z,762.03
2022-08-17T10:47:25.808Z,762.50
2022-08-17T10:49:52.293Z,769.07
2022-08-17T10:52:18.735Z,762.23
2022-08-17T10:54:45.173Z,757.93
2022-08-17T10:57:11.630Z,766.90
2022-08-17T10:59:38.088Z,766.17
2022-08-17T11:02:04.524Z,763.83
2022-08-17T11:04:30.985Z,767.23
2022-08-17T11:06:57.466Z,763.03
2022-08-17T11:09:23.936Z,756.03
2022-08-17T11:11:50.423Z,761.60
2022-08-17T11:14:16.910Z,764.10
2022-08-17T11:16:43.363Z,768.57
2022-08-17T11:19:09.823Z,764.10
2022-08-17T11:21:36.306Z,765.93
2022-08-17T11:24:02.771Z,764.73
2022-08-17T11:26:29.395Z,756.77
2022-08-17T11:28:55.844Z,762.23
2022-08-17T11:31:22.278Z,766.00
2022-08-17T11:34:05.812Z,757.90
2022-08-17T11:36:32.253Z,757.90
2022-08-17T11:38:58.915Z,764.17
2022-08-17T11:41:25.356Z,763.70
2022-08-17T11:43:51.807Z,767.87
2022-08-17T11:46:18.230Z,766.73
2022-08-17T11:48:44.724Z,768.30
2022-08-17T11:51:11.180Z,765.10
2022-08-17T11:53:37.657Z,767.03
2022-08-17T11:56:04.097Z,765.23
2022-08-17T11:58:30.572Z,769.03
2022-08-17T12:00:57.017Z,764.30
2022-08-17T12:03:23.544Z,765.93
2022-08-17T12:05:50.039Z,764.43
2022-08-17T12:08:16.470Z,770.33
2022-08-17T12:10:42.910Z,766.50
2022-08-17T12:13:09.343Z,772.60
2022-08-17T12:15:35.787Z,771.93
2022-08-17T12:18:02.251Z,766.53
2022-08-17T12:20:28.694Z,766.20
2022-08-17T12:22:55.146Z,767.47
2022-08-17T12:25:21.710Z,768.60
2022-08-17T12:28:06.770Z,767.70
2022-08-17T12:30:34.007Z,765.00
2022-08-17T12:33:00.454Z,764.83
2022-08-17T12:35:26.934Z,769.90
2022-08-17T12:37:53.393Z,766.23
2022-08-17T12:40:19.834Z,767.87
2022-08-17T12:42:46.285Z,762.67
2022-08-17T12:45:12.870Z,768.63
2022-08-17T12:47:39.325Z,766.30
2022-08-17T12:50:05.960Z,771.87
2022-08-17T12:52:32.418Z,768.37
2022-08-17T12:54:58.855Z,763.00
2022-08-17T12:57:25.286Z,773.20
2022-08-17T12:59:51.717Z,764.43
2022-08-17T13:02:18.137Z,763.60
2022-08-17T13:04:44.578Z,769.93
2022-08-17T13:07:11.058Z,767.33
2022-08-17T13:09:40.666Z,767.27
2022-08-17T13:12:07.725Z,765.50
2022-08-17T13:14:34.312Z,769.50
2022-08-17T13:17:00.809Z,760.47
2022-08-17T13:19:39.840Z,772.10
2022-08-17T13:22:07.152Z,767.83
2022-08-17T13:24:38.311Z,769.17
2022-08-17T13:27:07.814Z,765.73
2022-08-17T13:29:34.962Z,766.27
2022-08-17T13:32:04.754Z,768.00
2022-08-17T13:34:31.618Z,766.83
2022-08-17T13:36:59.809Z,772.20
2022-08-17T13:39:26.377Z,769.23
2022-08-17T13:41:52.825Z,760.80
2022-08-17T13:44:19.280Z,771.50
2022-08-17T13:46:45.721Z,765.67
2022-08-17T13:49:18.894Z,760.00
2022-08-17T13:51:45.371Z,766.53
2022-08-17T13:54:11.817Z,771.53
2022-08-17T13:56:39.548Z,759.73
2022-08-17T13:59:06.280Z,765.60
2022-08-17T14:01:32.775Z,769.27
2022-08-17T14:03:59.287Z,760.13
2022-08-17T14:06:52.794Z,768.73
2022-08-17T14:09:12.273Z,769.13
2022-08-17T14:11:38.740Z,771.23
2022-08-17T14:14:05.185Z,767.37
2022-08-17T14:16:31.615Z,771.93
2022-08-17T14:18:58.112Z,767.20
2022-08-17T14:21:24.533Z,769.63
2022-08-17T14:23:54.731Z,772.13
2022-08-17T14:26:21.580Z,767.60
2022-08-17T14:28:54.647Z,766.53
2022-08-17T14:31:23.496Z,773.13
2022-08-17T14:33:50.021Z,771.30
2022-08-17T14:36:16.473Z,771.03
2022-08-17T14:38:42.981Z,767.80
2022-08-17T14:41:09.420Z,772.60
2022-08-17T14:43:35.897Z,765.33
2022-08-17T14:46:02.334Z,770.53
2022-08-17T14:48:28.944Z,769.00
2022-08-17T14:50:55.510Z,769.20
2022-08-17T14:53:22.020Z,762.77
2022-08-17T14:55:48.670Z,772.40
2022-08-17T14:58:15.204Z,770.50
2022-08-17T15:00:41.651Z,767.50
2022-08-17T15:03:08.113Z,767.90
2022-08-17T15:05:34.570Z,771.63
2022-08-17T15:08:01.063Z,770.03
2022-08-17T15:10:27.561Z,767.67
2022-08-17T15:12:54.014Z,772.77
2022-08-17T15:15:20.480Z,775.60
2022-08-17T15:17:46.915Z,774.23
2022-08-17T15:20:15.029Z,774.40
2022-08-17T15:22:41.725Z,773.00
2022-08-17T15:25:08.197Z,762.27
2022-08-17T15:27:34.641Z,771.83
2022-08-17T15:30:01.107Z,770.70
2022-08-17T15:32:27.555Z,769.40
2022-08-17T15:34:54.022Z,773.03
2022-08-17T15:37:20.509Z,770.37
2022-08-17T15:39:47.050Z,771.53
2022-08-17T15:42:13.565Z,772.37
2022-08-17T15:44:40.035Z,770.43
2022-08-17T15:47:06.526Z,769.10
2022-08-17T15:49:33.007Z,771.73
2022-08-17T15:51:59.459Z,766.43
2022-08-17T15:54:26.460Z,772.40
2022-08-17T15:57:01.054Z,773.30
2022-08-17T15:59:27.518Z,768.23
2022-08-17T16:03:14.774Z,765.03
2022-08-17T16:04:43.886Z,769.83
2022-08-17T16:07:10.634Z,771.60
2022-08-17T16:09:37.166Z,767.90
2022-08-17T16:12:03.676Z,772.33
2022-08-17T16:14:33.649Z,769.57
2022-08-17T16:17:01.283Z,771.00
2022-08-17T16:19:27.752Z,767.60
2022-08-17T16:21:54.264Z,771.83
2022-08-17T16:24:20.844Z,770.17
2022-08-17T16:26:47.287Z,766.33
2022-08-17T16:29:13.781Z,767.77
2022-08-17T16:31:40.435Z,767.67
2022-08-17T16:34:18.101Z,772.30
2022-08-17T16:36:53.620Z,769.37
2022-08-17T16:39:22.312Z,772.33
2022-08-17T16:41:48.772Z,773.90
2022-08-17T16:44:15.586Z,768.43
2022-08-17T16:46:45.848Z,777.33
2022-08-17T16:49:12.574Z,776.10
2022-08-17T16:51:56.088Z,770.63
2022-08-17T16:54:22.561Z,771.47
2022-08-17T16:56:49.055Z,765.07
2022-08-17T16:59:30.317Z,770.23
2022-08-17T17:01:58.819Z,767.30
2022-08-17T17:04:25.280Z,773.03
2022-08-17T17:06:51.705Z,768.10
2022-08-17T17:09:19.427Z,767.43
2022-08-17T17:11:46.010Z,765.93
2022-08-17T17:14:12.465Z,769.33
2022-08-17T17:16:44.824Z,768.10
2022-08-17T17:19:11.460Z,767.53
2022-08-17T17:21:37.933Z,770.57
2022-08-17T17:24:05.597Z,770.40
2022-08-17T17:26:32.063Z,767.40
2022-08-17T17:28:58.530Z,768.83
2022-08-17T17:31:25.062Z,770.33
2022-08-17T17:33:51.537Z,770.83
2022-08-17T17:36:17.989Z,770.83
2022-08-17T17:38:44.472Z,773.03
2022-08-17T17:41:10.919Z,770.43
2022-08-17T17:43:40.353Z,769.00
2022-08-17T17:46:26.386Z,765.30
2022-08-17T17:48:53.751Z,766.73
2022-08-17T17:52:02.795Z,771.60
2022-08-17T17:54:06.646Z,764.37
2022-08-17T17:56:42.934Z,772.37
2022-08-17T17:59:12.604Z,769.53
2022-08-17T18:01:39.477Z,765.63
2022-08-17T18:04:20.385Z,767.37
2022-08-17T18:06:47.472Z,766.97
2022-08-17T18:09:18.014Z,760.40
2022-08-17T18:11:45.967Z,766.13
2022-08-17T18:14:18.115Z,766.93
2022-08-17T18:16:44.562Z,767.70
2022-08-17T18:19:11.059Z,766.47
2022-08-17T18:21:37.565Z,764.60
2022-08-17T18:24:04.024Z,767.60
2022-08-17T18:26:30.496Z,771.03
2022-08-17T18:28:58.597Z,771.83
2022-08-17T18:31:25.073Z,766.43
2022-08-17T18:33:51.511Z,769.30
2022-08-17T18:36:17.971Z,770.63
2022-08-17T18:38:44.454Z,770.70
2022-08-17T18:41:10.907Z,772.83
2022-08-17T18:43:53.069Z,768.47
2022-08-17T18:46:28.731Z,764.20
2022-08-17T18:48:55.844Z,768.40
2022-08-17T18:51:37.263Z,767.10
2022-08-17T18:54:08.241Z,769.07
2022-08-17T18:56:34.726Z,772.70
2022-08-17T18:59:01.172Z,770.87
2022-08-17T19:01:52.170Z,770.97
2022-08-17T19:04:14.105Z,768.77
2022-08-17T19:06:40.569Z,762.83
2022-08-17T19:09:06.997Z,767.43
2022-08-17T19:11:33.461Z,769.87
2022-08-17T19:13:59.943Z,766.83
2022-08-17T19:16:26.401Z,769.43
2022-08-17T19:18:52.863Z,769.83
2022-08-17T19:21:19.340Z,768.57
2022-08-17T19:23:53.955Z,769.73
2022-08-17T19:26:50.252Z,763.50
2022-08-17T19:29:07.361Z,769.10
2022-08-17T19:31:36.214Z,765.33
2022-08-17T19:58:17.888Z,768.73
2022-08-17T20:00:44.847Z,771.23
2022-08-17T20:03:16.359Z,773.13
2022-08-17T20:06:01.349Z,771.33
2022-08-17T20:08:29.797Z,771.23
2022-08-17T20:10:56.293Z,769.90
2022-08-17T20:13:33.015Z,759.60
2022-08-17T20:16:00.284Z,763.80
2022-08-17T20:18:26.707Z,770.80
2022-08-17T20:20:54.841Z,772.03
2022-08-17T20:23:22.325Z,769.23
2022-08-17T20:25:48.818Z,767.23
2022-08-17T20:28:15.295Z,770.30
2022-08-17T20:30:42.516Z,769.37
2022-08-17T20:33:08.970Z,766.90
2022-08-17T20:35:39.702Z,769.13
2022-08-17T20:38:06.141Z,770.90
2022-08-17T20:40:32.594Z,769.13
2022-08-17T20:42:59.147Z,764.73
2022-08-17T20:45:25.629Z,770.40
2022-08-17T20:48:18.522Z,769.80
2022-08-17T20:50:38.602Z,767.97
2022-08-17T20:53:05.053Z,767.00
2022-08-17T20:55:31.525Z,764.77
2022-08-17T20:57:59.011Z,765.67
2022-08-17T21:00:25.477Z,766.13
2022-08-17T21:02:51.919Z,770.60
2022-08-17T21:05:18.396Z,769.00
2022-08-17T21:07:44.834Z,766.20
2022-08-17T21:10:11.301Z,768.93
2022-08-17T21:12:37.753Z,767.80
2022-08-17T21:15:04.223Z,766.10
2022-08-17T21:17:39.244Z,761.70
2022-08-17T21:20:13.073Z,770.33
2022-08-17T21:22:39.543Z,768.30
2022-08-17T21:25:06.005Z,770.67
2022-08-17T21:27:32.460Z,768.73
2022-08-17T21:29:58.929Z,771.07
2022-08-17T21:32:25.433Z,765.23
2022-08-17T21:34:51.958Z,769.30
2022-08-17T21:37:18.427Z,768.20
2022-08-17T21:39:44.952Z,765.40
2022-08-17T21:42:11.461Z,762.93
2022-08-17T21:44:37.948Z,769.10
2022-08-17T21:47:04.451Z,766.03
2022-08-17T21:49:30.907Z,770.73
2022-08-17T21:52:04.401Z,762.60
2022-08-17T21:54:30.868Z,770.20
2022-08-17T21:56:57.314Z,768.60
2022-08-17T21:59:23.742Z,768.20
2022-08-17T22:01:50.523Z,767.83
2022-08-17T22:04:17.142Z,768.13
2022-08-17T22:06:56.654Z,766.03
2022-08-17T22:09:23.921Z,772.20
2022-08-17T22:11:50.388Z,766.00
2022-08-17T22:14:16.834Z,767.10
2022-08-17T22:16:43.982Z,762.60
2022-08-17T22:19:10.442Z,768.50
2022-08-17T22:21:36.926Z,762.73
2022-08-17T22:24:03.381Z,765.37
2022-08-17T22:26:29.845Z,766.03
2022-08-17T22:28:56.309Z,765.23
2022-08-17T22:31:22.806Z,771.30
2022-08-17T22:33:49.250Z,769.23
2022-08-17T22:36:15.719Z,767.03
2022-08-17T22:38:43.553Z,761.50
2022-08-17T22:41:10.230Z,763.53
2022-08-17T22:43:36.700Z,766.93
2022-08-17T22:46:03.160Z,767.40
2022-08-17T22:48:29.626Z,766.77
2022-08-17T22:50:56.084Z,762.33
2022-08-17T22:53:22.527Z,768.27
2022-08-17T22:55:48.996Z,763.33
2022-08-17T22:58:15.466Z,768.10
2022-08-17T23:00:41.923Z,759.50
2022-08-17T23:03:08.513Z,768.03
2022-08-17T23:05:35.047Z,762.87
2022-08-17T23:08:01.560Z,769.30
2022-08-17T23:10:28.042Z,763.93
2022-08-17T23:12:54.495Z,766.20
2022-08-17T23:15:20.941Z,763.73
2022-08-17T23:17:47.487Z,767.80
2022-08-17T23:20:14.043Z,767.53
2022-08-17T23:22:51.954Z,760.63
2022-08-17T23:25:19.136Z,768.87
2022-08-17T23:27:47.072Z,765.50
2022-08-17T23:30:13.566Z,764.17
2022-08-17T23:32:53.440Z,765.80
2022-08-17T23:35:20.582Z,762.90
2022-08-17T23:38:07.037Z,765.43
2022-08-17T23:40:33.531Z,761.53
2022-08-17T23:42:59.974Z,765.23
2022-08-17T23:45:31.073Z,765.90
2022-08-17T23:47:57.556Z,764.83
2022-08-17T23:50:24.022Z,765.50
2022-08-17T23:52:56.423Z,760.93
2022-08-17T23:55:22.905Z,762.53
2022-08-17T23:57:49.567Z,762.43
